Time,TemperatureF,DewpointF,PressureIn,WindDirection,WindDirectionDegrees,WindSpeedMPH,WindSpeedGustMPH,Humidity,HourlyPrecipIn,Conditions,Clouds,dailyrainin,SolarRadiationWatts/m^2,SoftwareType,DateUTC
2013-05-27 00:12:00,72.0,64.0,30.39,ENE,64,19.0,32.0,76,0.00,,,0.00,0.000000,,2013-05-27 10:12:00,
2013-05-27 00:22:00,72.0,64.0,30.39,ENE,64,19.0,32.0,76,0.00,,,0.00,0.000000,,2013-05-27 10:22:00,
2013-05-27 00:32:00,72.0,64.0,30.39,ENE,64,19.0,32.0,76,0.00,,,0.00,0.000000,,2013-05-27 10:32:00,
2013-05-27 00:42:00,72.0,64.0,30.39,ENE,64,19.0,32.0,76,0.00,,,0.00,0.000000,,2013-05-27 10:42:00,
2013-05-27 00:52:00,72.0,64.0,30.39,ENE,64,19.0,32.0,76,0.00,,,0.00,0.000000,,2013-05-27 10:52:00,
2013-05-27 01:11:00,73.0,64.0,30.38,ENE,71,20.0,34.0,74,0.00,,,0.00,0.000000,,2013-05-27 11:11:00,
2013-05-27 01:21:00,73.0,64.0,30.38,ENE,71,20.0,34.0,74,0.00,,,0.00,0.000000,,2013-05-27 11:21:00,
2013-05-27 01:32:00,73.0,64.0,30.38,ENE,71,20.0,34.0,74,0.00,,,0.00,0.000000,,2013-05-27 11:32:00,
2013-05-27 01:42:00,73.0,64.0,30.38,ENE,71,20.0,34.0,74,0.00,,,0.00,0.000000,,2013-05-27 11:42:00,
2013-05-27 01:51:00,73.0,64.0,30.38,ENE,71,20.0,34.0,74,0.00,,,0.00,0.000000,,2013-05-27 11:51:00,
2013-05-27 02:11:00,73.0,65.0,30.35,ENE,66,19.0,34.0,77,0.00,,,0.00,0.000000,,2013-05-27 12:11:00,
2013-05-27 02:21:00,73.0,65.0,30.35,ENE,66,19.0,34.0,77,0.00,,,0.00,0.000000,,2013-05-27 12:21:00,
2013-05-27 02:32:00,73.0,65.0,30.35,ENE,66,19.0,34.0,77,0.00,,,0.00,0.000000,,2013-05-27 12:32:00,
2013-05-27 02:42:00,73.0,65.0,30.35,ENE,66,19.0,34.0,77,0.00,,,0.00,0.000000,,2013-05-27 12:42:00,
2013-05-27 02:52:00,73.0,65.0,30.35,ENE,66,19.0,34.0,77,0.00,,,0.00,0.000000,,2013-05-27 12:52:00,
2013-05-27 03:11:00,73.0,67.0,30.34,ENE,77,22.0,35.0,81,0.00,,,-99.99,0.000000,,2013-05-27 13:11:00,
2013-05-27 03:21:00,73.0,67.0,30.34,ENE,77,22.0,35.0,81,0.00,,,-99.99,0.000000,,2013-05-27 13:21:00,
2013-05-27 03:32:00,73.0,67.0,30.34,ENE,77,22.0,35.0,81,0.00,,,-99.99,0.000000,,2013-05-27 13:32:00,
2013-05-27 03:41:00,73.0,67.0,30.34,ENE,77,22.0,35.0,81,0.00,,,-99.99,0.000000,,2013-05-27 13:41:00,
2013-05-27 03:52:00,73.0,67.0,30.34,ENE,77,22.0,35.0,81,0.00,,,-99.99,0.000000,,2013-05-27 13:52:00,
2013-05-27 04:11:00,71.0,66.0,30.34,ENE,78,18.0,30.0,85,0.00,,,0.00,0.000000,,2013-05-27 14:11:00,
2013-05-27 04:21:00,71.0,66.0,30.34,ENE,78,18.0,30.0,85,0.00,,,0.00,0.000000,,2013-05-27 14:21:00,
2013-05-27 04:32:00,71.0,66.0,30.34,ENE,78,18.0,30.0,85,0.00,,,0.00,0.000000,,2013-05-27 14:32:00,
2013-05-27 04:42:00,71.0,66.0,30.34,ENE,78,18.0,30.0,85,0.00,,,0.00,0.000000,,2013-05-27 14:42:00,
2013-05-27 04:51:00,71.0,66.0,30.34,ENE,78,18.0,30.0,85,0.00,,,0.00,0.000000,,2013-05-27 14:51:00,
2013-05-27 04:53:00,71.0,66.0,30.34,ENE,70,17.0,38.0,85,0.00,,,0.00,0.000000,,2013-05-27 14:53:00,
2013-05-27 05:11:00,71.0,66.0,30.34,ENE,70,17.0,38.0,85,0.00,,,0.00,0.000000,,2013-05-27 15:11:00,
2013-05-27 05:21:00,71.0,66.0,30.34,ENE,70,17.0,38.0,85,0.00,,,0.00,0.000000,,2013-05-27 15:21:00,
2013-05-27 05:33:00,71.0,66.0,30.34,ENE,70,17.0,38.0,85,0.00,,,0.00,0.000000,,2013-05-27 15:33:00,
2013-05-27 05:43:00,71.0,66.0,30.34,ENE,70,17.0,38.0,85,0.00,,,0.00,0.000000,,2013-05-27 15:43:00,
2013-05-27 06:12:00,70.0,66.0,30.34,ENE,68,20.0,32.0,86,0.00,,,0.00,0.000000,,2013-05-27 16:12:00,
2013-05-27 06:23:00,70.0,66.0,30.34,ENE,68,20.0,32.0,86,0.00,,,0.00,0.000000,,2013-05-27 16:23:00,
2013-05-27 06:33:00,70.0,66.0,30.34,ENE,68,20.0,32.0,86,0.00,,,0.00,0.000000,,2013-05-27 16:33:00,
2013-05-27 06:42:00,70.0,66.0,30.34,ENE,68,20.0,32.0,86,0.00,,,0.00,0.000000,,2013-05-27 16:42:00,
2013-05-27 06:52:00,70.0,66.0,30.34,ENE,68,20.0,32.0,86,0.00,,,0.00,0.000000,,2013-05-27 16:52:00,
2013-05-27 07:11:00,71.0,66.0,30.36,East,80,16.0,30.0,85,0.00,,,0.00,0.000000,,2013-05-27 17:11:00,
2013-05-27 07:22:00,71.0,66.0,30.36,East,80,16.0,30.0,85,0.00,,,0.00,0.000000,,2013-05-27 17:22:00,
2013-05-27 07:32:00,71.0,66.0,30.36,East,80,16.0,30.0,85,0.00,,,0.00,0.000000,,2013-05-27 17:32:00,
2013-05-27 07:42:00,71.0,66.0,30.36,East,80,16.0,30.0,85,0.00,,,0.00,0.000000,,2013-05-27 17:42:00,
2013-05-27 07:52:00,71.0,66.0,30.36,East,80,16.0,30.0,85,0.00,,,0.00,0.000000,,2013-05-27 17:52:00,
2013-05-27 08:11:00,73.0,68.0,30.38,East,89,16.0,31.0,83,0.00,,,0.00,54.000000,,2013-05-27 18:11:00,
2013-05-27 08:21:00,73.0,68.0,30.38,East,89,16.0,31.0,83,0.00,,,0.00,54.000000,,2013-05-27 18:21:00,
2013-05-27 08:32:00,73.0,68.0,30.38,East,89,16.0,31.0,83,0.00,,,0.00,54.000000,,2013-05-27 18:32:00,
2013-05-27 08:42:00,73.0,68.0,30.38,East,89,16.0,31.0,83,0.00,,,0.00,54.000000,,2013-05-27 18:42:00,
2013-05-27 08:52:00,73.0,68.0,30.38,East,89,16.0,31.0,83,0.00,,,0.00,54.000000,,2013-05-27 18:52:00,
2013-05-27 09:11:00,73.0,66.0,30.39,East,95,19.0,31.0,79,0.00,,,0.00,87.000000,,2013-05-27 19:11:00,
2013-05-27 09:21:00,73.0,66.0,30.39,East,95,19.0,31.0,79,0.00,,,0.00,87.000000,,2013-05-27 19:21:00,
2013-05-27 09:31:00,73.0,66.0,30.39,East,95,19.0,31.0,79,0.00,,,0.00,87.000000,,2013-05-27 19:31:00,
2013-05-27 09:41:00,73.0,66.0,30.39,East,95,19.0,31.0,79,0.00,,,0.00,87.000000,,2013-05-27 19:41:00,
2013-05-27 09:52:00,73.0,66.0,30.39,East,95,19.0,31.0,79,0.00,,,0.00,87.000000,,2013-05-27 19:52:00,
2013-05-27 10:11:00,77.0,68.0,30.39,East,86,21.0,33.0,74,0.00,,,0.00,267.000000,,2013-05-27 20:11:00,
2013-05-27 10:22:00,77.0,68.0,30.39,East,86,21.0,33.0,74,0.00,,,0.00,267.000000,,2013-05-27 20:22:00,
2013-05-27 10:32:00,77.0,68.0,30.39,East,86,21.0,33.0,74,0.00,,,0.00,267.000000,,2013-05-27 20:32:00,
2013-05-27 10:41:00,77.0,68.0,30.39,East,86,21.0,33.0,74,0.00,,,0.00,267.000000,,2013-05-27 20:41:00,
2013-05-27 10:52:00,77.0,68.0,30.39,East,86,21.0,33.0,74,0.00,,,0.00,267.000000,,2013-05-27 20:52:00,
2013-05-27 10:53:00,77.0,67.0,30.38,East,87,20.0,31.0,71,0.00,,,0.00,563.000000,,2013-05-27 20:53:00,
2013-05-27 11:12:00,77.0,67.0,30.38,East,87,20.0,31.0,71,0.00,,,0.00,563.000000,,2013-05-27 21:12:00,
2013-05-27 11:21:00,77.0,67.0,30.38,East,87,20.0,31.0,71,0.00,,,0.00,563.000000,,2013-05-27 21:21:00,
2013-05-27 11:33:00,77.0,67.0,30.38,East,87,20.0,31.0,71,0.00,,,0.00,563.000000,,2013-05-27 21:33:00,
2013-05-27 11:43:00,77.0,67.0,30.38,East,87,20.0,31.0,71,0.00,,,0.00,563.000000,,2013-05-27 21:43:00,
2013-05-27 12:12:00,77.0,66.0,30.39,East,86,21.0,31.0,70,0.00,,,0.00,981.000000,,2013-05-27 22:12:00,
2013-05-27 12:22:00,77.0,66.0,30.39,East,86,21.0,31.0,70,0.00,,,0.00,981.000000,,2013-05-27 22:22:00,
2013-05-27 12:32:00,77.0,66.0,30.39,East,86,21.0,31.0,70,0.00,,,0.00,981.000000,,2013-05-27 22:32:00,
2013-05-27 12:42:00,77.0,66.0,30.39,East,86,21.0,31.0,70,0.00,,,0.00,981.000000,,2013-05-27 22:42:00,
2013-05-27 12:52:00,77.0,66.0,30.39,East,86,21.0,31.0,70,0.00,,,0.00,981.000000,,2013-05-27 22:52:00,
2013-05-27 13:12:00,77.0,66.0,30.38,East,86,23.0,33.0,70,0.00,,,0.00,1183.000000,,2013-05-27 23:12:00,
2013-05-27 13:22:00,77.0,66.0,30.38,East,86,23.0,33.0,70,0.00,,,0.00,1183.000000,,2013-05-27 23:22:00,
2013-05-27 13:32:00,77.0,66.0,30.38,East,86,23.0,33.0,70,0.00,,,0.00,1183.000000,,2013-05-27 23:32:00,
2013-05-27 13:42:00,77.0,66.0,30.38,East,86,23.0,33.0,70,0.00,,,0.00,1183.000000,,2013-05-27 23:42:00,
2013-05-27 13:52:00,77.0,66.0,30.38,East,86,23.0,33.0,70,0.00,,,0.00,1183.000000,,2013-05-27 23:52:00,
2013-05-27 14:11:00,79.0,67.0,30.36,East,89,23.0,35.0,67,0.00,,,0.00,1223.000000,,2013-05-28 00:11:00,
2013-05-27 14:21:00,79.0,67.0,30.36,East,89,23.0,35.0,67,0.00,,,0.00,1223.000000,,2013-05-28 00:21:00,
2013-05-27 14:31:00,79.0,67.0,30.36,East,89,23.0,35.0,67,0.00,,,0.00,1223.000000,,2013-05-28 00:31:00,
2013-05-27 14:41:00,79.0,67.0,30.36,East,89,23.0,35.0,67,0.00,,,0.00,1223.000000,,2013-05-28 00:41:00,
2013-05-27 14:51:00,79.0,67.0,30.36,East,89,23.0,35.0,67,0.00,,,0.00,1223.000000,,2013-05-28 00:51:00,
2013-05-27 15:11:00,78.0,65.0,30.35,East,90,21.0,34.0,65,0.00,,,0.00,1205.000000,,2013-05-28 01:11:00,
2013-05-27 15:21:00,78.0,65.0,30.35,East,90,21.0,34.0,65,0.00,,,0.00,1205.000000,,2013-05-28 01:21:00,
2013-05-27 15:31:00,78.0,65.0,30.35,East,90,21.0,34.0,65,0.00,,,0.00,1205.000000,,2013-05-28 01:31:00,
2013-05-27 15:41:00,78.0,65.0,30.35,East,90,21.0,34.0,65,0.00,,,0.00,1205.000000,,2013-05-28 01:41:00,
2013-05-27 15:52:00,78.0,65.0,30.35,East,90,21.0,34.0,65,0.00,,,0.00,1205.000000,,2013-05-28 01:52:00,
2013-05-27 16:11:00,79.0,69.0,30.34,East,79,20.0,33.0,71,0.00,,,0.00,1114.000000,,2013-05-28 02:11:00,
2013-05-27 16:21:00,79.0,69.0,30.34,East,79,20.0,33.0,71,0.00,,,0.00,1114.000000,,2013-05-28 02:21:00,
2013-05-27 16:32:00,79.0,69.0,30.34,East,79,20.0,33.0,71,0.00,,,0.00,1114.000000,,2013-05-28 02:32:00,
2013-05-27 16:41:00,79.0,69.0,30.34,East,79,20.0,33.0,71,0.00,,,0.00,1114.000000,,2013-05-28 02:41:00,
2013-05-27 16:51:00,79.0,69.0,30.34,East,79,20.0,33.0,71,0.00,,,0.00,1114.000000,,2013-05-28 02:51:00,
2013-05-27 16:53:00,78.0,66.0,30.33,East,81,20.0,33.0,66,0.00,,,0.00,913.000000,,2013-05-28 02:53:00,
2013-05-27 17:11:00,78.0,66.0,30.33,East,81,20.0,33.0,66,0.00,,,0.00,913.000000,,2013-05-28 03:11:00,
2013-05-27 17:21:00,78.0,66.0,30.33,East,81,20.0,33.0,66,0.00,,,0.00,913.000000,,2013-05-28 03:21:00,
2013-05-27 17:33:00,78.0,66.0,30.33,East,81,20.0,33.0,66,0.00,,,0.00,913.000000,,2013-05-28 03:33:00,
2013-05-27 17:43:00,78.0,66.0,30.33,East,81,20.0,33.0,66,0.00,,,0.00,913.000000,,2013-05-28 03:43:00,
2013-05-27 18:12:00,75.0,66.0,30.34,ENE,75,20.0,36.0,74,0.00,,,0.00,634.000000,,2013-05-28 04:12:00,
2013-05-27 18:22:00,75.0,66.0,30.34,ENE,75,20.0,36.0,74,0.00,,,0.00,634.000000,,2013-05-28 04:22:00,
2013-05-27 18:33:00,75.0,66.0,30.34,ENE,75,20.0,36.0,74,0.00,,,0.00,634.000000,,2013-05-28 04:33:00,
2013-05-27 18:42:00,75.0,66.0,30.34,ENE,75,20.0,36.0,74,0.00,,,0.00,634.000000,,2013-05-28 04:42:00,
2013-05-27 18:52:00,75.0,66.0,30.34,ENE,75,20.0,36.0,74,0.00,,,0.00,634.000000,,2013-05-28 04:52:00,
2013-05-27 19:12:00,73.0,65.0,30.35,ENE,78,21.0,35.0,77,0.00,,,0.00,262.000000,,2013-05-28 05:12:00,
2013-05-27 19:22:00,73.0,65.0,30.35,ENE,78,21.0,35.0,77,0.00,,,0.00,262.000000,,2013-05-28 05:22:00,
2013-05-27 19:32:00,73.0,65.0,30.35,ENE,78,21.0,35.0,77,0.00,,,0.00,262.000000,,2013-05-28 05:32:00,
2013-05-27 19:42:00,73.0,65.0,30.35,ENE,78,21.0,35.0,77,0.00,,,0.00,262.000000,,2013-05-28 05:42:00,
2013-05-27 19:52:00,73.0,65.0,30.35,ENE,78,21.0,35.0,77,0.00,,,0.00,262.000000,,2013-05-28 05:52:00,
2013-05-27 20:11:00,74.0,67.0,30.38,East,79,19.0,33.0,78,0.00,,,0.00,115.000000,,2013-05-28 06:11:00,
2013-05-27 20:21:00,74.0,67.0,30.38,East,79,19.0,33.0,78,0.00,,,0.00,115.000000,,2013-05-28 06:21:00,
2013-05-27 20:31:00,74.0,67.0,30.38,East,79,19.0,33.0,78,0.00,,,0.00,115.000000,,2013-05-28 06:31:00,
2013-05-27 20:41:00,74.0,67.0,30.38,East,79,19.0,33.0,78,0.00,,,0.00,115.000000,,2013-05-28 06:41:00,
2013-05-27 20:51:00,74.0,67.0,30.38,East,79,19.0,33.0,78,0.00,,,0.00,115.000000,,2013-05-28 06:51:00,
2013-05-27 21:11:00,74.0,67.0,30.39,ENE,74,19.0,37.0,78,0.00,,,0.00,1.000000,,2013-05-28 07:11:00,
2013-05-27 21:21:00,74.0,67.0,30.39,ENE,74,19.0,37.0,78,0.00,,,0.00,1.000000,,2013-05-28 07:21:00,
2013-05-27 21:32:00,74.0,67.0,30.39,ENE,74,19.0,37.0,78,0.00,,,0.00,1.000000,,2013-05-28 07:32:00,
2013-05-27 21:42:00,74.0,67.0,30.39,ENE,74,19.0,37.0,78,0.00,,,0.00,1.000000,,2013-05-28 07:42:00,
2013-05-27 21:52:00,74.0,67.0,30.39,ENE,74,19.0,37.0,78,0.00,,,0.00,1.000000,,2013-05-28 07:52:00,
2013-05-27 22:11:00,74.0,67.0,30.40,East,79,20.0,36.0,79,0.00,,,-99.99,0.000000,,2013-05-28 08:11:00,
2013-05-27 22:21:00,74.0,67.0,30.40,East,79,20.0,36.0,79,0.00,,,-99.99,0.000000,,2013-05-28 08:21:00,
2013-05-27 22:32:00,74.0,67.0,30.40,East,79,20.0,36.0,79,0.00,,,-99.99,0.000000,,2013-05-28 08:32:00,
2013-05-27 22:42:00,74.0,67.0,30.40,East,79,20.0,36.0,79,0.00,,,-99.99,0.000000,,2013-05-28 08:42:00,
2013-05-27 22:51:00,74.0,67.0,30.40,East,79,20.0,36.0,79,0.00,,,-99.99,0.000000,,2013-05-28 08:51:00,
2013-05-27 22:53:00,74.0,68.0,30.40,East,84,19.0,31.0,81,0.00,,,0.00,0.000000,,2013-05-28 08:53:00,
2013-05-27 23:11:00,74.0,68.0,30.40,East,84,19.0,31.0,81,0.00,,,0.00,0.000000,,2013-05-28 09:11:00,
2013-05-27 23:21:00,74.0,68.0,30.40,East,84,19.0,31.0,81,0.00,,,0.00,0.000000,,2013-05-28 09:21:00,
2013-05-27 23:33:00,74.0,68.0,30.40,East,84,19.0,31.0,81,0.00,,,0.00,0.000000,,2013-05-28 09:33:00,
2013-05-27 23:42:00,74.0,68.0,30.40,East,84,19.0,31.0,81,0.00,,,0.00,0.000000,,2013-05-28 09:42:00,